• Join FlightAware (Why Join?)
  • Login
  • US Flag 
03:42AM EDT


 

Airport Tracker/Info


-or-


 

Live Flight TrackerFlight Track Log ✈ N143DE ✈ 15-Oct-2013 ✈ KATL - KFLL

Flight Track Log - Related Links

Times and Time Zones

All times are in EDT time to prevent confusion due to time zone crossing. See the N143DE flight status page for this flight to view local times or setup timezone preferences in your user account.

Time Position Orientation Groundspeed Altitude Reporting Facility
EDT Latitude Longitude Course Direction KTS MPH feet Rate Location/Type
05:24AM 33.6500 -84.3833 160° South 137 158 3,300  Level Atlanta TRACON
05:25AM 33.6500 -84.3500 90° East 136 157 5,600 1,980 Climbing Atlanta TRACON
05:26AM 33.6000 -84.3333 164° South 152 175 7,300 1,680 Climbing Atlanta TRACON
05:28AM 33.4997 -84.3128 170° South 165 190 11,500 1,560 Climbing Atlanta Center
05:29AM 33.3100 -84.2270 160° South  Level Estimated
05:29AM 33.4475 -84.3053 173° South 170 196 12,700  Level Atlanta Center
05:30AM 33.3953 -84.2925 168° South 181 208 14,000 1,260 Climbing Atlanta Center
05:31AM 33.3411 -84.2700 161° South 193 222 15,300 1,140 Climbing Atlanta Center
05:32AM 33.2869 -84.2575 169° South 199 229 16,300 1,020 Climbing Atlanta Center
05:33AM 33.2306 -84.2400 165° South 208 239 17,400 960 Climbing Atlanta Center
05:34AM 33.1742 -84.2225 165° South 208 239 18,300 960 Climbing Atlanta Center
05:35AM 33.1219 -84.2050 164° South 203 234 19,400 900 Climbing Atlanta Center
05:36AM 33.0656 -84.1900 167° South 203 234 20,100 660 Climbing Atlanta Center
05:37AM 33.0136 -84.1700 162° South 208 239 20,800 660 Climbing Atlanta Center
05:38AM 32.9572 -84.1528 166° South 208 239 21,500 660 Climbing Atlanta Center
05:39AM 32.8967 -84.1353 166° South 214 246 22,200 660 Climbing Atlanta Center
05:40AM 32.8361 -84.1131 163° South 221 254 22,900 660 Climbing Atlanta Center
05:41AM 32.7736 -84.0931 165° South 221 254 23,600 600 Climbing Atlanta Center
05:44AM 32.6267 -84.0519 167° South 225 259 25,000 420 Climbing Jacksonville Center
05:45AM 32.5603 -84.0314 165° South 236 272 25,100  Climbing Jacksonville Center
05:46AM 32.4872 -84.0108 167° South 251 289 25,100 -60 Level Jacksonville Center
05:47AM 32.4164 -83.9878 165° South 263 303 25,000 -60 Descending Jacksonville Center
05:48AM 32.3394 -83.9647 166° South 273 314 25,000  Level Jacksonville Center
05:49AM 32.2644 -83.9417 165° South 279 321 25,000  Level Jacksonville Center
05:50AM 32.1894 -83.9186 165° South 279 321 25,000  Level Jacksonville Center
05:51AM 32.1167 -83.8958 165° South 279 321 25,000  Level Jacksonville Center
05:52AM 32.0417 -83.8706 164° South 279 321 25,000  Level Jacksonville Center
05:53AM 31.9625 -83.8378 161° South 279 321 25,000  Level Jacksonville Center
05:54AM 31.8917 -83.8103 162° South 279 321 25,000  Level Jacksonville Center
05:55AM 31.8169 -83.7753 158° South 284 327 25,000  Level Jacksonville Center
05:56AM 31.7439 -83.7453 161° South 284 327 25,000  Level Jacksonville Center
05:57AM 31.6711 -83.7178 162° South 284 327 25,000  Level Jacksonville Center
05:58AM 31.6025 -83.6928 163° South 284 327 25,000  Level Jacksonville Center
05:59AM 31.5294 -83.6653 162° South 284 327 25,000  Level Jacksonville Center
06:00AM 31.4567 -83.6353 161° South 279 321 25,000  Level Jacksonville Center
06:01AM 31.3836 -83.6081 162° South 284 327 25,000  Level Jacksonville Center
06:02AM 31.3108 -83.5783 161° South 284 327 25,000  Level Jacksonville Center
06:03AM 31.2378 -83.5486 161° South 284 327 25,000  Level Jacksonville Center
06:04AM 31.1650 -83.5189 161° South 284 327 25,000  Level Jacksonville Center
06:05AM 31.0919 -83.4917 162° South 284 327 25,000  Level Jacksonville Center
06:06AM 31.0189 -83.4647 162° South 284 327 25,000  Level Jacksonville Center
06:07AM 30.9439 -83.4328 160° South 284 327 25,000  Level Jacksonville Center
06:08AM 30.8711 -83.4033 161° South 284 327 25,000  Level Jacksonville Center
06:09AM 30.7939 -83.3714 160° South 284 327 25,000  Level Jacksonville Center
06:10AM 30.7208 -83.3444 162° South 279 321 25,000  Level Jacksonville Center
06:11AM 30.6500 -83.3153 160° South 279 321 25,000  Level Jacksonville Center
06:12AM 30.5769 -83.2883 162° South 279 321 25,000  Level Jacksonville Center
06:13AM 30.5061 -83.2614 162° South 279 321 25,000  Level Jacksonville Center
06:14AM 30.4331 -83.2322 161° South 279 321 25,000  Level Jacksonville Center
06:15AM 30.3600 -83.2056 163° South 279 321 25,000  Level Jacksonville Center
06:16AM 30.2892 -83.1764 160° South 279 321 25,000  Level Jacksonville Center
06:17AM 30.2183 -83.1475 161° South 279 321 25,000  Level Jacksonville Center
06:18AM 30.1453 -83.1208 162° South 279 321 25,000  Level Jacksonville Center
06:19AM 30.0742 -83.0942 162° South 279 321 25,000  Level Jacksonville Center
06:20AM 30.0033 -83.0678 162° South 279 321 25,000  Level Jacksonville Center
06:21AM 29.9367 -83.0436 163° South 284 327 25,000  Level Jacksonville Center
06:22AM 29.8656 -83.0147 161° South 279 321 25,000  Level Jacksonville Center
06:23AM 29.7925 -82.9858 161° South 279 321 25,000  Level Jacksonville Center
06:24AM 29.7194 -82.9594 163° South 279 321 25,000  Level Jacksonville Center
06:25AM 29.6486 -82.9333 162° South 279 321 25,000  Level Jacksonville Center
06:26AM 29.5733 -82.9044 162° South 279 321 25,000  Level Jacksonville Center
06:27AM 29.5025 -82.8783 162° South 285 328 25,000  Level Jacksonville Center
06:28AM 29.4272 -82.8472 160° South 285 328 25,000  Level Jacksonville Center
06:29AM 29.3542 -82.8211 163° South 280 322 25,000  Level Jacksonville Center
06:30AM 29.2831 -82.7925 161° South 280 322 25,000  Level Jacksonville Center
06:31AM 29.2081 -82.7642 162° South 280 322 25,000  Level Jacksonville Center
06:32AM 29.1369 -82.7381 162° South 280 322 25,000  Level Jacksonville Center
06:33AM 29.0661 -82.7072 159° South 280 322 25,000  Level Jacksonville Center
06:34AM 28.9886 -82.6814 164° South 285 328 25,000  Level Jacksonville Center
06:35AM 28.9156 -82.6531 161° South 285 328 25,000  Level Jacksonville Center
06:36AM 28.8425 -82.6247 161° South 285 328 25,000  Level Jacksonville Center
06:37AM 28.7694 -82.5964 161° South 285 328 25,000  Level Jacksonville Center
06:38AM 28.6942 -82.5708 163° South 285 328 25,000  Level Jacksonville Center
06:39AM 28.6147 -82.5425 163° South 285 328 25,000  Level Jacksonville Center
06:40AM 28.5439 -82.5144 161° South 285 328 25,000  Level Jacksonville Center
06:41AM 28.4664 -82.4864 162° South 285 328 25,000  Level Jacksonville Center
06:42AM 28.3933 -82.4583 161° South 285 328 25,000  Level Jacksonville Center
06:43AM 28.3203 -82.4328 163° South 285 328 25,000  Level Jacksonville Center
06:44AM 28.2450 -82.4047 162° South 285 328 25,000  Level Jacksonville Center
06:46AM 28.0833 -82.3442 162° South 277 319 25,000  Level Miami Center
06:47AM 28.0092 -82.3169 162° South 284 327 25,000  Level Miami Center
06:48AM 27.9350 -82.2900 162° South 279 321 25,000  Level Miami Center
06:49AM 27.8653 -82.2631 161° South 279 321 25,000  Level Miami Center
06:50AM 27.7869 -82.2311 160° South 284 327 25,000  Level Miami Center
06:51AM 27.7108 -82.2042 163° South 284 327 25,000  Level Miami Center
06:52AM 27.6347 -82.1772 163° South 284 327 25,000  Level Miami Center
06:53AM 27.5689 -82.1531 162° South 284 327 25,000  Level Miami Center
06:54AM 27.4925 -82.1261 163° South 284 327 25,000  Level Miami Center
06:55AM 27.4122 -82.0967 162° South 284 327 25,000  Level Miami Center
06:56AM 27.3361 -82.0675 161° South 284 327 25,000  Level Miami Center
06:57AM 27.2703 -82.0436 162° South 278 320 25,000  Level Miami Center
06:58AM 27.1939 -82.0169 163° South 283 326 25,000  Level Miami Center
06:59AM 27.1114 -81.9853 161° South 283 326 25,000  Level Miami Center
07:00AM 27.0353 -81.9586 163° South 283 326 25,000 -60 Level Miami Center
07:01AM 26.9700 -81.9139 149° Southeast 278 320 24,900 -660 Descending Miami Center
07:02AM 26.9097 -81.8458 135° Southeast 293 337 23,700 -1,140 Descending Miami Center
07:03AM 26.8456 -81.7733 135° Southeast 308 354 22,700 -960 Descending Miami Center
07:04AM 26.7831 -81.7011 134° Southeast 315 362 21,800 -900 Descending Miami Center
07:05AM 26.7208 -81.6286 134° Southeast 321 369 20,900 -900 Descending Miami Center
07:06AM 26.6622 -81.5658 136° Southeast 316 364 20,100 -900 Descending Miami Center
07:07AM 26.6019 -81.4961 134° Southeast 316 364 19,200 -1,500 Descending Miami Center
07:08AM 26.5333 -81.4239 137° Southeast 311 358 17,100 -1,920 Descending Miami Center
07:09AM 26.4706 -81.3564 136° Southeast 311 358 15,400 -1,680 Descending Miami Center
07:10AM 26.4100 -81.2914 136° Southeast 316 364 13,800 -1,860 Descending Miami Center
07:11AM 26.3494 -81.2244 135° Southeast 310 357 11,700 -1,860 Descending Miami Center
07:12AM 26.2986 -81.1714 137° Southeast 291 335 10,500 -1,500 Descending Miami Center
07:12AM 26.2928 -81.1619 125° Southeast 298 343 10,200 -1,680 Descending Miami Center
07:12AM 26.2825 -81.1569 156° South 286 329 10,000 -1,560 Descending Miami Center
07:13AM 26.2381 -81.1022 132° Southeast 286 329 8,700 -1,440 Descending Miami Center
07:13AM 26.2239 -81.0900 142° Southeast 276 318 8,400 -1,140 Descending Miami Center
07:14AM 26.1856 -81.0447 133° Southeast 275 316 7,600 -1,140 Descending Miami Center
07:14AM 26.1692 -81.0303 142° Southeast 258 297 7,300 -1,020 Descending Miami Center
07:15AM 26.1389 -80.9944 133° Southeast 269 310 6,600 -1,260 Descending Miami Center
07:15AM 26.1308 -80.9850 134° Southeast 255 293 6,300 -600 Descending Miami Center
07:16AM 26.1242 -80.9222 97° East 244 281 6,000 -300 Descending Miami Center
07:16AM 26.1203 -80.9153 122° Southeast 231 266 6,000  Level Miami Center
07:17AM 26.1136 -80.8503 97° East 233 268 6,000  Level Miami Center
07:17AM 26.1097 -80.8431 121° Southeast 238 274 6,000  Level Miami Center
07:18AM 26.1031 -80.7758 96° East 233 268 6,000  Level Miami Center
07:18AM 26.0994 -80.7550 101° East 244 281 6,000  Level Miami Center
07:19AM 26.0947 -80.7017 96° East 239 275 6,000  Level Miami Center
07:19AM 26.0889 -80.6806 107° East 243 280 6,000  Level Miami Center
07:20AM 26.0861 -80.6272 93° East 239 275 6,000 -240 Level Miami Center
07:20AM 26.0803 -80.6064 107° East 244 281 5,800 -600 Descending Miami Center
07:21AM 26.0797 -80.5508 91° East 239 275 5,400 -660 Descending Miami Center
07:21AM 26.0758 -80.5344 105° East 253 291 5,200 -360 Descending Miami Center
07:22AM 26.0756 -80.4606 90° East 240 276 5,000 -480 Descending Miami Center
07:23AM 26.0753 -80.3911 90° East 213 245 4,300 -1,020 Descending Miami Center
07:24AM 26.0747 -80.3239 91° East 210 242 3,000 -1,140 Descending Miami Center
07:25AM 26.0761 -80.2731 88° East 151 174 2,100 -960 Descending Miami Center
07:26AM 26.0750 -80.2314 92° East 128 147 1,100 -840 Descending Miami Center
07:27AM 26.0736 -80.1922 92° East 121 139 400 -720 Descending Miami Center
07:29AM 26.0667 -80.1500 90° East  Level FlightAware Approximate